createdAt,value
2023-08-28T00:00:40.055Z,1012.2
2023-08-28T00:01:40.066Z,1012.2
2023-08-28T00:02:40.008Z,1012.2
2023-08-28T00:03:40.011Z,1012.2
2023-08-28T00:04:39.994Z,1012.3
2023-08-28T00:05:40.059Z,1012.4
2023-08-28T00:06:39.984Z,1012.5
2023-08-28T00:07:40.084Z,1012.4
2023-08-28T00:08:39.974Z,1012.7
2023-08-28T00:09:40.003Z,1012.5
2023-08-28T00:10:40.805Z,1012.6
2023-08-28T00:11:39.985Z,1012.6
2023-08-28T00:12:39.980Z,1012.6
2023-08-28T00:13:40.057Z,1012.6
2023-08-28T00:14:39.987Z,1012.6
2023-08-28T00:15:39.994Z,1012.6
2023-08-28T00:16:40.016Z,1012.7
2023-08-28T00:17:40.038Z,1012.6
2023-08-28T00:18:40.191Z,1012.6
2023-08-28T00:19:39.956Z,1012.4
2023-08-28T00:20:39.961Z,1012.5
2023-08-28T00:21:39.983Z,1012.6
2023-08-28T00:22:40.000Z,1012.6
2023-08-28T00:23:39.985Z,1012.5
2023-08-28T00:24:40.007Z,1012.6
2023-08-28T00:25:39.964Z,1012.6
2023-08-28T00:26:39.961Z,1012.7
2023-08-28T00:27:40.031Z,1012.7
2023-08-28T00:28:39.937Z,1012.9
2023-08-28T00:29:41.419Z,1012.8
2023-08-28T00:30:39.931Z,1012.9
2023-08-28T00:31:40.932Z,1012.9
2023-08-28T00:32:40.004Z,1012.9
2023-08-28T00:33:39.969Z,1012.9
2023-08-28T00:34:39.953Z,1012.8
2023-08-28T00:35:40.029Z,1012.8
2023-08-28T00:36:39.920Z,1012.8
2023-08-28T00:37:39.952Z,1012.7
2023-08-28T00:38:40.037Z,1012.8
2023-08-28T00:39:39.920Z,1012.7
2023-08-28T00:40:42.752Z,1012.7
2023-08-28T00:41:40.013Z,1012.8
2023-08-28T00:42:39.917Z,1012.9
2023-08-28T00:43:39.947Z,1012.9
2023-08-28T00:44:39.936Z,1013.0
2023-08-28T00:45:39.921Z,1013.1
2023-08-28T00:46:39.921Z,1013.0
2023-08-28T00:47:40.003Z,1013.1
2023-08-28T00:48:40.017Z,1013.2
2023-08-28T00:49:40.004Z,1013.2
2023-08-28T00:50:39.979Z,1013.2
2023-08-28T00:51:39.919Z,1013.4
2023-08-28T00:52:40.968Z,1013.4
2023-08-28T00:53:39.945Z,1013.5
2023-08-28T00:54:39.913Z,1013.6
2023-08-28T00:55:39.921Z,1013.4
2023-08-28T00:56:39.948Z,1013.4
2023-08-28T00:57:39.947Z,1013.2
2023-08-28T00:58:40.076Z,1013.2
2023-08-28T00:59:39.943Z,1013.2
2023-08-28T01:00:39.916Z,1013.1
2023-08-28T01:01:39.975Z,1013.1
2023-08-28T01:02:39.961Z,1013.2
2023-08-28T01:03:39.942Z,1013.1
2023-08-28T01:04:39.978Z,1013.2
2023-08-28T01:05:39.946Z,1013.1
2023-08-28T01:06:39.930Z,1013.1
2023-08-28T01:07:39.979Z,1013.2
2023-08-28T01:08:39.925Z,1013.2
2023-08-28T01:09:39.949Z,1013.3
2023-08-28T01:10:39.898Z,1013.2
2023-08-28T01:11:39.872Z,1013.2
2023-08-28T01:12:39.880Z,1013.3
2023-08-28T01:13:41.087Z,1013.4
2023-08-28T01:14:39.883Z,1013.5
2023-08-28T01:15:39.994Z,1013.5
2023-08-28T01:16:39.952Z,1013.5
2023-08-28T01:17:39.888Z,1013.4
2023-08-28T01:18:39.868Z,1013.4
2023-08-28T01:19:39.937Z,1013.4
2023-08-28T01:20:39.916Z,1013.3
2023-08-28T01:21:39.901Z,1013.3
2023-08-28T01:22:39.981Z,1013.3
2023-08-28T01:23:39.865Z,1013.3
2023-08-28T01:24:40.029Z,1013.4
2023-08-28T01:25:39.932Z,1013.4
2023-08-28T01:26:39.915Z,1013.5
2023-08-28T01:27:39.880Z,1013.5
2023-08-28T01:28:39.883Z,1013.6
2023-08-28T01:29:39.860Z,1013.7
2023-08-28T01:30:39.874Z,1013.7
2023-08-28T01:31:39.904Z,1013.8
2023-08-28T01:32:39.906Z,1013.6
2023-08-28T01:33:39.927Z,1013.7
2023-08-28T01:34:41.136Z,1013.7
2023-08-28T01:35:39.850Z,1013.6
2023-08-28T01:36:39.880Z,1013.5
2023-08-28T01:37:39.864Z,1013.4
2023-08-28T01:38:39.846Z,1013.4
2023-08-28T01:39:39.841Z,1013.4
2023-08-28T01:40:39.872Z,1013.5
2023-08-28T01:41:39.826Z,1013.5
2023-08-28T01:42:39.844Z,1013.4
2023-08-28T01:43:39.821Z,1013.3
2023-08-28T01:44:39.858Z,1013.2
2023-08-28T01:45:39.881Z,1013.2
2023-08-28T01:46:39.979Z,1013.2
2023-08-28T01:47:39.949Z,1013.3
2023-08-28T01:48:39.852Z,1013.2
2023-08-28T01:49:39.849Z,1013.3
2023-08-28T01:50:39.843Z,1013.3
2023-08-28T01:51:39.842Z,1013.4
2023-08-28T01:52:39.884Z,1013.4
2023-08-28T01:53:39.827Z,1013.4
2023-08-28T01:54:39.863Z,1013.5
2023-08-28T01:55:41.092Z,1013.5
2023-08-28T01:56:39.844Z,1013.4
2023-08-28T01:57:40.070Z,1013.5
2023-08-28T01:58:39.816Z,1013.5
2023-08-28T01:59:39.869Z,1013.4
2023-08-28T02:00:39.891Z,1013.5
2023-08-28T02:01:39.839Z,1013.4
2023-08-28T02:02:39.911Z,1013.4
2023-08-28T02:03:39.833Z,1013.5
2023-08-28T02:04:39.839Z,1013.4
2023-08-28T02:05:39.847Z,1013.4
2023-08-28T02:06:39.877Z,1013.3
2023-08-28T02:07:39.899Z,1013.4
2023-08-28T02:08:39.940Z,1013.4
2023-08-28T02:09:39.924Z,1013.4
2023-08-28T02:10:39.812Z,1013.5
2023-08-28T02:11:39.841Z,1013.4
2023-08-28T02:12:39.845Z,1013.4
2023-08-28T02:13:39.821Z,1013.5
2023-08-28T02:14:39.912Z,1013.5
2023-08-28T02:15:39.830Z,1013.4
2023-08-28T02:16:39.935Z,1013.5
2023-08-28T02:17:41.804Z,1013.5
2023-08-28T02:18:39.818Z,1013.5
2023-08-28T02:19:39.829Z,1013.5
2023-08-28T02:20:39.835Z,1013.5
2023-08-28T02:21:39.842Z,1013.5
2023-08-28T02:22:39.848Z,1013.6
2023-08-28T02:23:39.842Z,1013.6
2023-08-28T02:24:39.805Z,1013.6
2023-08-28T02:25:39.822Z,1013.6
2023-08-28T02:26:39.812Z,1013.5
2023-08-28T02:27:39.823Z,1013.5
2023-08-28T02:28:39.821Z,1013.5
2023-08-28T02:29:39.808Z,1013.6
2023-08-28T02:30:40.067Z,1013.6
2023-08-28T02:31:39.865Z,1013.6
2023-08-28T02:32:39.974Z,1013.5
2023-08-28T02:33:39.772Z,1013.6
2023-08-28T02:34:39.806Z,1013.5
2023-08-28T02:35:39.821Z,1013.6
2023-08-28T02:36:39.784Z,1013.6
2023-08-28T02:37:39.806Z,1013.6
2023-08-28T02:38:41.770Z,1013.6
2023-08-28T02:39:39.822Z,1013.6
2023-08-28T02:40:39.798Z,1013.7
2023-08-28T02:41:39.797Z,1013.6
2023-08-28T02:42:39.822Z,1013.5
2023-08-28T02:43:40.017Z,1013.5
2023-08-28T02:44:39.828Z,1013.3
2023-08-28T02:45:39.799Z,1013.3
2023-08-28T02:46:39.935Z,1013.2
2023-08-28T02:47:39.812Z,1013.2
2023-08-28T02:48:39.785Z,1013.3
2023-08-28T02:49:39.837Z,1013.3
2023-08-28T02:50:39.809Z,1013.2
2023-08-28T02:51:39.863Z,1013.2
2023-08-28T02:52:39.964Z,1013.2
2023-08-28T02:53:39.744Z,1013.3
2023-08-28T02:54:39.785Z,1013.3
2023-08-28T02:55:39.782Z,1013.3
2023-08-28T02:56:39.884Z,1013.3
2023-08-28T02:57:39.772Z,1013.4
2023-08-28T02:58:39.766Z,1013.4
2023-08-28T02:59:39.782Z,1013.5
2023-08-28T03:00:42.450Z,1013.5
2023-08-28T03:01:39.777Z,1013.4
2023-08-28T03:02:39.897Z,1013.4
2023-08-28T03:03:40.000Z,1013.3
2023-08-28T03:04:39.754Z,1013.4
2023-08-28T03:05:39.771Z,1013.4
2023-08-28T03:06:39.772Z,1013.2
2023-08-28T03:07:39.919Z,1013.4
2023-08-28T03:08:39.774Z,1013.3
2023-08-28T03:09:39.777Z,1013.3
2023-08-28T03:10:39.769Z,1013.3
2023-08-28T03:11:39.729Z,1013.3
2023-08-28T03:12:39.734Z,1013.3
2023-08-28T03:13:39.746Z,1013.4
2023-08-28T03:14:40.024Z,1013.4
2023-08-28T03:15:39.757Z,1013.4
2023-08-28T03:16:39.812Z,1013.5
2023-08-28T03:17:39.806Z,1013.5
2023-08-28T03:18:39.729Z,1013.6
2023-08-28T03:19:39.730Z,1013.5
2023-08-28T03:20:39.747Z,1013.5
2023-08-28T03:21:41.714Z,1013.5
2023-08-28T03:22:39.783Z,1013.6
2023-08-28T03:23:39.723Z,1013.5
2023-08-28T03:24:39.835Z,1013.6
2023-08-28T03:25:39.953Z,1013.5
2023-08-28T03:26:39.728Z,1013.6
2023-08-28T03:27:39.695Z,1013.7
2023-08-28T03:28:39.742Z,1013.6
2023-08-28T03:29:39.732Z,1013.7
2023-08-28T03:30:39.708Z,1013.6
2023-08-28T03:31:39.751Z,1013.6
2023-08-28T03:32:39.782Z,1013.5
2023-08-28T03:33:39.754Z,1013.4
2023-08-28T03:34:39.725Z,1013.4
2023-08-28T03:35:39.767Z,1013.4
2023-08-28T03:36:39.961Z,1013.3
2023-08-28T03:37:39.734Z,1013.3
2023-08-28T03:38:40.519Z,1013.3
2023-08-28T03:39:39.744Z,1013.3
2023-08-28T03:40:39.707Z,1013.3
2023-08-28T03:41:39.668Z,1013.3
2023-08-28T03:42:41.920Z,1013.4
2023-08-28T03:43:39.719Z,1013.5
2023-08-28T03:44:39.793Z,1013.5
2023-08-28T03:45:39.924Z,1013.5
2023-08-28T03:46:39.811Z,1013.6
2023-08-28T03:47:40.056Z,1013.5
2023-08-28T03:48:39.731Z,1013.5
2023-08-28T03:49:40.872Z,1013.4
2023-08-28T03:50:39.868Z,1013.5
2023-08-28T03:51:39.872Z,1013.5
2023-08-28T03:52:40.519Z,1013.5
2023-08-28T03:53:39.746Z,1013.5
2023-08-28T03:54:39.698Z,1013.6
2023-08-28T03:55:39.685Z,1013.7
2023-08-28T03:56:39.685Z,1013.7
2023-08-28T03:57:39.651Z,1013.7
2023-08-28T03:58:39.673Z,1013.8
2023-08-28T03:59:39.724Z,1013.8
2023-08-28T04:00:39.739Z,1013.8
2023-08-28T04:01:39.694Z,1013.8
2023-08-28T04:02:39.684Z,1013.8
2023-08-28T04:03:39.773Z,1013.8
2023-08-28T04:04:44.331Z,1013.8
2023-08-28T04:05:39.841Z,1013.9
2023-08-28T04:06:39.740Z,1014.0
2023-08-28T04:07:39.693Z,1013.9
2023-08-28T04:08:39.657Z,1014.1
2023-08-28T04:09:39.661Z,1014.0
2023-08-28T04:10:39.928Z,1014.0
2023-08-28T04:11:39.782Z,1014.2
2023-08-28T04:12:39.683Z,1014.1
2023-08-28T04:13:39.644Z,1014.1
2023-08-28T04:14:39.631Z,1014.1
2023-08-28T04:15:39.737Z,1014.2
2023-08-28T04:16:39.650Z,1014.2
2023-08-28T04:17:39.725Z,1014.3
2023-08-28T04:18:39.642Z,1014.2
2023-08-28T04:19:39.881Z,1014.3
2023-08-28T04:20:39.684Z,1014.4
2023-08-28T04:21:39.637Z,1014.4
2023-08-28T04:22:39.675Z,1014.4
2023-08-28T04:23:39.696Z,1014.3
2023-08-28T04:24:40.338Z,1014.4
2023-08-28T04:25:42.879Z,1014.3
2023-08-28T04:26:39.647Z,1014.4
2023-08-28T04:27:39.650Z,1014.3
2023-08-28T04:28:39.705Z,1014.3
2023-08-28T04:29:39.640Z,1014.4
2023-08-28T04:30:39.655Z,1014.4
2023-08-28T04:31:39.726Z,1014.4
2023-08-28T04:32:39.765Z,1014.4
2023-08-28T04:33:39.619Z,1014.4
2023-08-28T04:34:39.651Z,1014.4
2023-08-28T04:35:39.616Z,1014.5
2023-08-28T04:36:39.649Z,1014.5
2023-08-28T04:37:39.741Z,1014.6
2023-08-28T04:38:39.619Z,1014.6
2023-08-28T04:39:39.665Z,1014.5
2023-08-28T04:40:39.635Z,1014.5
2023-08-28T04:41:39.666Z,1014.5
2023-08-28T04:42:39.614Z,1014.5
2023-08-28T04:43:39.755Z,1014.5
2023-08-28T04:44:39.652Z,1014.5
2023-08-28T04:45:39.738Z,1014.5
2023-08-28T04:46:40.806Z,1014.5
2023-08-28T04:47:39.671Z,1014.5
2023-08-28T04:48:39.620Z,1014.5
2023-08-28T04:49:39.635Z,1014.5
2023-08-28T04:50:39.581Z,1014.5
2023-08-28T04:51:39.636Z,1014.5
2023-08-28T04:52:39.636Z,1014.4
2023-08-28T04:53:39.641Z,1014.4
2023-08-28T04:54:39.754Z,1014.4
2023-08-28T04:55:39.599Z,1014.3
2023-08-28T04:56:39.603Z,1014.3
2023-08-28T04:57:39.652Z,1014.3
2023-08-28T04:58:39.624Z,1014.1
2023-08-28T04:59:39.610Z,1014.1
2023-08-28T05:00:39.585Z,1014.1
2023-08-28T05:01:39.731Z,1014.0
2023-08-28T05:02:39.620Z,1014.0
2023-08-28T05:03:39.673Z,1014.1
2023-08-28T05:04:39.645Z,1014.1
2023-08-28T05:05:39.776Z,1014.0
2023-08-28T05:06:39.660Z,1014.1
2023-08-28T05:07:39.646Z,1014.1
2023-08-28T05:08:41.666Z,1014.1
2023-08-28T05:09:39.702Z,1014.1
2023-08-28T05:10:39.588Z,1014.1
2023-08-28T05:11:39.589Z,1014.0
2023-08-28T05:12:39.674Z,1014.0
2023-08-28T05:13:39.584Z,1014.0
2023-08-28T05:14:39.598Z,1013.9
2023-08-28T05:15:39.667Z,1014.0
2023-08-28T05:16:39.625Z,1013.8
2023-08-28T05:17:39.604Z,1013.8
2023-08-28T05:18:41.370Z,1013.9
2023-08-28T05:19:39.614Z,1013.9
2023-08-28T05:20:39.577Z,1014.0
2023-08-28T05:21:39.593Z,1014.0
2023-08-28T05:22:39.603Z,1014.1
2023-08-28T05:23:39.589Z,1014.1
2023-08-28T05:24:39.583Z,1014.1
2023-08-28T05:25:39.568Z,1014.1
2023-08-28T05:26:39.587Z,1014.1
2023-08-28T05:27:39.758Z,1014.1
2023-08-28T05:28:39.599Z,1014.1
2023-08-28T05:29:41.568Z,1014.0
2023-08-28T05:30:39.574Z,1014.1
2023-08-28T05:31:39.647Z,1014.1
2023-08-28T05:32:39.664Z,1014.0
2023-08-28T05:33:39.537Z,1014.0
2023-08-28T05:34:39.539Z,1014.0
2023-08-28T05:35:39.558Z,1014.0
2023-08-28T05:36:39.568Z,1014.0
2023-08-28T05:37:39.587Z,1014.0
2023-08-28T05:38:39.728Z,1014.0
2023-08-28T05:39:39.595Z,1014.0
2023-08-28T05:40:39.561Z,1014.0
2023-08-28T05:41:39.586Z,1013.9
2023-08-28T05:42:39.589Z,1013.8
2023-08-28T05:43:39.561Z,1013.9
2023-08-28T05:44:39.574Z,1013.9
2023-08-28T05:45:39.528Z,1013.8
2023-08-28T05:46:39.607Z,1013.7
2023-08-28T05:47:39.589Z,1013.8
2023-08-28T05:48:39.584Z,1013.7
2023-08-28T05:49:39.832Z,1013.8
2023-08-28T05:50:41.845Z,1013.8
2023-08-28T05:51:39.578Z,1013.9
2023-08-28T05:52:39.556Z,1013.9
2023-08-28T05:53:41.862Z,1013.8
2023-08-28T05:54:39.536Z,1013.9
2023-08-28T05:55:39.542Z,1013.9
2023-08-28T05:56:39.529Z,1013.9
2023-08-28T05:57:39.598Z,1014.0
2023-08-28T05:58:39.523Z,1014.0
2023-08-28T05:59:39.507Z,1013.9
2023-08-28T06:00:39.560Z,1014.0
2023-08-28T06:01:39.551Z,1013.8
2023-08-28T06:02:39.609Z,1013.8
2023-08-28T06:03:39.586Z,1013.6
2023-08-28T06:04:39.501Z,1013.6
2023-08-28T06:05:39.508Z,1013.6
2023-08-28T06:06:39.588Z,1013.7
2023-08-28T06:07:39.534Z,1013.7
2023-08-28T06:08:39.585Z,1013.8
2023-08-28T06:09:39.513Z,1013.8
2023-08-28T06:10:39.597Z,1013.8
2023-08-28T06:11:41.953Z,1013.8
2023-08-28T06:12:39.513Z,1013.9
2023-08-28T06:13:39.503Z,1014.0
2023-08-28T06:14:39.529Z,1013.9
2023-08-28T06:15:39.523Z,1014.0
2023-08-28T06:16:39.599Z,1013.9
2023-08-28T06:17:39.538Z,1013.9
2023-08-28T06:18:39.498Z,1013.9
2023-08-28T06:19:39.498Z,1013.8
2023-08-28T06:20:39.564Z,1013.7
2023-08-28T06:21:39.520Z,1013.7
2023-08-28T06:22:39.609Z,1013.8
2023-08-28T06:23:39.487Z,1013.7
2023-08-28T06:24:39.466Z,1013.7
2023-08-28T06:25:39.503Z,1013.7
2023-08-28T06:26:39.463Z,1013.6
2023-08-28T06:27:39.505Z,1013.6
2023-08-28T06:28:39.481Z,1013.5
2023-08-28T06:29:39.509Z,1013.5
2023-08-28T06:30:39.504Z,1013.6
2023-08-28T06:31:39.493Z,1013.7
2023-08-28T06:32:41.919Z,1013.9
2023-08-28T06:33:39.702Z,1013.9
2023-08-28T06:34:39.504Z,1013.8
2023-08-28T06:35:39.491Z,1013.9
2023-08-28T06:36:39.504Z,1013.8
2023-08-28T06:37:39.515Z,1013.8
2023-08-28T06:38:39.540Z,1013.7
2023-08-28T06:39:39.483Z,1013.7
2023-08-28T06:40:39.521Z,1013.7
2023-08-28T06:41:39.442Z,1013.8
2023-08-28T06:42:39.498Z,1013.8
2023-08-28T06:43:39.545Z,1013.8
2023-08-28T06:44:42.271Z,1013.8
2023-08-28T06:45:39.472Z,1013.8
2023-08-28T06:46:39.534Z,1013.8
2023-08-28T06:47:39.595Z,1013.8
2023-08-28T06:48:39.451Z,1013.9
2023-08-28T06:49:39.591Z,1013.9
2023-08-28T06:50:39.440Z,1014.0
2023-08-28T06:51:39.454Z,1014.0
2023-08-28T06:52:39.444Z,1014.1
2023-08-28T06:53:41.810Z,1014.0
2023-08-28T06:55:41.248Z,1013.9
2023-08-28T06:56:39.521Z,1014.0
2023-08-28T06:57:39.441Z,1013.9
2023-08-28T06:58:39.458Z,1013.9
2023-08-28T06:59:39.543Z,1013.9
2023-08-28T07:00:39.553Z,1013.9
2023-08-28T07:01:39.525Z,1013.9
2023-08-28T07:02:39.460Z,1013.9
2023-08-28T07:03:39.485Z,1014.0
2023-08-28T07:04:39.489Z,1014.1
2023-08-28T07:05:39.505Z,1014.1
2023-08-28T07:06:39.487Z,1014.1
2023-08-28T07:07:39.541Z,1014.0
2023-08-28T07:08:39.412Z,1014.1
2023-08-28T07:09:39.472Z,1014.1
2023-08-28T07:10:39.434Z,1014.0
2023-08-28T07:11:39.462Z,1014.0
2023-08-28T07:12:39.451Z,1013.9
2023-08-28T07:13:39.424Z,1014.0
2023-08-28T07:14:41.895Z,1014.0
2023-08-28T07:15:39.494Z,1014.0
2023-08-28T07:16:39.426Z,1013.9
2023-08-28T07:17:42.252Z,1013.9
2023-08-28T07:18:39.815Z,1013.9
2023-08-28T07:19:39.458Z,1013.9
2023-08-28T07:20:39.446Z,1014.0
2023-08-28T07:21:39.427Z,1014.1
2023-08-28T07:22:39.376Z,1014.1
2023-08-28T07:23:39.401Z,1014.1
2023-08-28T07:24:39.417Z,1014.1
2023-08-28T07:25:39.436Z,1014.2
2023-08-28T07:26:39.427Z,1014.1
2023-08-28T07:27:39.378Z,1014.0
2023-08-28T07:28:39.392Z,1014.0
2023-08-28T07:29:39.713Z,1014.0
2023-08-28T07:30:39.508Z,1014.0
2023-08-28T07:31:39.411Z,1014.0
2023-08-28T07:32:39.482Z,1013.9
2023-08-28T07:33:39.403Z,1013.9
2023-08-28T07:34:39.410Z,1014.0
2023-08-28T07:35:42.129Z,1014.0
2023-08-28T07:36:39.409Z,1014.0
2023-08-28T07:37:39.441Z,1014.0
2023-08-28T07:38:39.404Z,1014.0
2023-08-28T07:39:39.412Z,1013.9
2023-08-28T07:40:39.629Z,1013.9
2023-08-28T07:41:39.451Z,1013.9
2023-08-28T07:42:39.403Z,1014.0
2023-08-28T07:43:39.363Z,1013.9
2023-08-28T07:44:39.440Z,1013.9
2023-08-28T07:45:39.388Z,1013.9
2023-08-28T07:46:39.423Z,1014.0
2023-08-28T07:47:39.436Z,1014.0
2023-08-28T07:48:39.393Z,1013.9
2023-08-28T07:49:39.399Z,1013.9
2023-08-28T07:50:39.395Z,1013.9
2023-08-28T07:51:39.617Z,1013.9
2023-08-28T07:52:39.346Z,1013.8
2023-08-28T07:53:39.413Z,1013.9
2023-08-28T07:54:39.372Z,1013.9
2023-08-28T07:55:39.410Z,1013.9
2023-08-28T07:56:42.192Z,1013.8
2023-08-28T07:57:39.367Z,1013.8
2023-08-28T07:58:39.383Z,1013.8
2023-08-28T07:59:39.380Z,1013.8
2023-08-28T08:00:39.363Z,1013.8
2023-08-28T08:01:39.498Z,1013.8
2023-08-28T08:02:39.406Z,1013.6
2023-08-28T08:03:39.543Z,1013.7
2023-08-28T08:04:39.376Z,1013.6
2023-08-28T08:05:39.375Z,1013.5
2023-08-28T08:06:40.014Z,1013.5
2023-08-28T08:07:39.361Z,1013.6
2023-08-28T08:08:39.364Z,1013.5
2023-08-28T08:09:39.355Z,1013.5
2023-08-28T08:10:39.344Z,1013.5
2023-08-28T08:11:39.356Z,1013.6
2023-08-28T08:12:39.354Z,1013.5
2023-08-28T08:13:39.365Z,1013.5
2023-08-28T08:14:39.529Z,1013.5
2023-08-28T08:15:39.365Z,1013.5
2023-08-28T08:16:39.419Z,1013.6
2023-08-28T08:17:45.477Z,1013.6
2023-08-28T08:18:39.328Z,1013.6
2023-08-28T08:19:39.349Z,1013.7
2023-08-28T08:20:39.384Z,1013.7
2023-08-28T08:21:39.350Z,1013.7
2023-08-28T08:22:39.326Z,1013.7
2023-08-28T08:23:39.372Z,1013.7
2023-08-28T08:24:39.322Z,1013.7
2023-08-28T08:25:39.490Z,1013.7
2023-08-28T08:26:39.433Z,1013.7
2023-08-28T08:27:39.402Z,1013.7
2023-08-28T08:28:39.390Z,1013.7
2023-08-28T08:29:39.332Z,1013.7
2023-08-28T08:30:39.295Z,1013.6
2023-08-28T08:31:39.373Z,1013.7
2023-08-28T08:32:39.324Z,1013.7
2023-08-28T08:33:39.402Z,1013.7
2023-08-28T08:34:39.311Z,1013.7
2023-08-28T08:35:39.324Z,1013.7
2023-08-28T08:36:39.429Z,1013.7
2023-08-28T08:37:39.858Z,1013.8
2023-08-28T08:38:42.205Z,1013.7
2023-08-28T08:39:39.344Z,1013.7
2023-08-28T08:40:39.297Z,1013.8
2023-08-28T08:41:39.314Z,1013.7
2023-08-28T08:42:39.332Z,1013.7
2023-08-28T08:43:39.328Z,1013.8
2023-08-28T08:44:39.313Z,1013.7
2023-08-28T08:45:39.332Z,1013.8
2023-08-28T08:46:39.308Z,1013.8
2023-08-28T08:47:39.320Z,1013.8
2023-08-28T08:48:39.297Z,1013.8
2023-08-28T08:49:39.309Z,1013.9
2023-08-28T08:50:39.332Z,1013.8
2023-08-28T08:51:39.311Z,1013.8
2023-08-28T08:52:39.314Z,1014.0
2023-08-28T08:53:39.312Z,1013.9
2023-08-28T08:54:39.367Z,1013.9
2023-08-28T08:55:39.793Z,1013.9
2023-08-28T08:56:39.340Z,1014.0
2023-08-28T08:57:39.360Z,1014.0
2023-08-28T08:58:39.794Z,1014.0
2023-08-28T08:59:42.399Z,1013.9
2023-08-28T09:00:39.274Z,1013.9
2023-08-28T09:01:39.357Z,1013.8
2023-08-28T09:02:39.506Z,1013.9
2023-08-28T09:03:39.328Z,1013.9
2023-08-28T09:04:39.260Z,1013.9
2023-08-28T09:05:39.328Z,1013.9
2023-08-28T09:06:39.291Z,1013.9
2023-08-28T09:07:39.330Z,1013.9
2023-08-28T09:08:39.298Z,1013.9
2023-08-28T09:09:39.288Z,1013.9
2023-08-28T09:10:39.379Z,1013.8
2023-08-28T09:11:39.263Z,1013.8
2023-08-28T09:12:39.304Z,1013.8
2023-08-28T09:13:39.300Z,1013.8
2023-08-28T09:14:40.701Z,1013.9
2023-08-28T09:15:39.342Z,1013.9
2023-08-28T09:16:39.276Z,1013.8
2023-08-28T09:17:39.322Z,1013.9
2023-08-28T09:18:39.256Z,1013.8
2023-08-28T09:19:39.288Z,1013.8
2023-08-28T09:20:39.299Z,1013.7
2023-08-28T09:21:41.804Z,1013.7
2023-08-28T09:23:40.930Z,1013.8
2023-08-28T09:24:39.253Z,1013.7
2023-08-28T09:25:39.321Z,1013.7
2023-08-28T09:26:39.257Z,1013.7
2023-08-28T09:27:40.429Z,1013.8
2023-08-28T09:28:39.243Z,1013.7
2023-08-28T09:29:39.372Z,1013.7
2023-08-28T09:30:39.409Z,1013.6
2023-08-28T09:31:39.280Z,1013.7
2023-08-28T09:32:39.340Z,1013.6
2023-08-28T09:33:39.335Z,1013.6
2023-08-28T09:34:39.262Z,1013.6
2023-08-28T09:35:39.395Z,1013.6
2023-08-28T09:36:42.133Z,1013.7
2023-08-28T09:37:39.274Z,1013.6
2023-08-28T09:38:39.362Z,1013.7
2023-08-28T09:39:39.337Z,1013.6
2023-08-28T09:40:39.340Z,1013.6
2023-08-28T09:41:39.216Z,1013.7
2023-08-28T09:42:42.110Z,1013.5
2023-08-28T09:43:39.276Z,1013.5
2023-08-28T09:44:39.258Z,1013.5
2023-08-28T09:45:39.311Z,1013.5
2023-08-28T09:46:39.276Z,1013.5
2023-08-28T09:47:39.237Z,1013.5
2023-08-28T09:48:39.674Z,1013.5
2023-08-28T09:49:39.218Z,1013.4
2023-08-28T09:50:39.227Z,1013.4
2023-08-28T09:51:39.208Z,1013.4
2023-08-28T09:52:39.254Z,1013.4
2023-08-28T09:53:39.468Z,1013.4
2023-08-28T09:54:39.254Z,1013.4
2023-08-28T09:55:39.223Z,1013.4
2023-08-28T09:56:39.224Z,1013.4
2023-08-28T09:57:39.325Z,1013.4
2023-08-28T09:58:39.222Z,1013.4
2023-08-28T09:59:39.224Z,1013.5
2023-08-28T10:00:39.243Z,1013.5
2023-08-28T10:01:39.369Z,1013.6
2023-08-28T10:02:39.393Z,1013.5
2023-08-28T10:03:41.807Z,1013.5
2023-08-28T10:04:39.381Z,1013.5
2023-08-28T10:05:39.237Z,1013.5
2023-08-28T10:07:04.053Z,1013.6
2023-08-28T10:08:04.011Z,1013.6
2023-08-28T10:09:03.960Z,1013.5
2023-08-28T10:10:04.342Z,1013.5
2023-08-28T10:11:03.960Z,1013.5
2023-08-28T10:12:05.845Z,1013.5
2023-08-28T10:13:04.264Z,1013.5
2023-08-28T10:14:03.932Z,1013.5
2023-08-28T10:15:04.000Z,1013.4
2023-08-28T10:16:04.026Z,1013.4
2023-08-28T10:17:03.994Z,1013.4
2023-08-28T10:18:04.019Z,1013.4
2023-08-28T10:19:03.905Z,1013.4
2023-08-28T10:20:03.911Z,1013.4
2023-08-28T10:21:03.975Z,1013.4
2023-08-28T10:22:03.961Z,1013.4
2023-08-28T10:23:04.254Z,1013.4
2023-08-28T10:24:03.908Z,1013.4
2023-08-28T10:25:05.274Z,1013.3
2023-08-28T10:26:03.972Z,1013.4
2023-08-28T10:27:03.941Z,1013.4
2023-08-28T10:28:03.941Z,1013.3
2023-08-28T10:29:05.322Z,1013.3
2023-08-28T10:30:03.928Z,1013.3
2023-08-28T10:31:03.950Z,1013.2
2023-08-28T10:32:03.958Z,1013.2
2023-08-28T10:33:06.042Z,1013.2
2023-08-28T10:34:03.908Z,1013.2
2023-08-28T10:35:03.987Z,1013.1
2023-08-28T10:36:03.908Z,1013.2
2023-08-28T10:37:13.564Z,1013.1
2023-08-28T10:38:03.888Z,1013.1
2023-08-28T10:39:03.873Z,1013.1
2023-08-28T10:40:03.975Z,1013.1
2023-08-28T10:41:03.886Z,1013.2
2023-08-28T10:42:03.888Z,1013.2
2023-08-28T10:43:04.157Z,1013.1
2023-08-28T10:44:03.892Z,1013.0
2023-08-28T10:45:04.702Z,1013.1
2023-08-28T10:46:03.983Z,1013.1
2023-08-28T10:47:03.910Z,1013.0
2023-08-28T10:48:03.844Z,1013.1
2023-08-28T10:49:03.851Z,1013.0
2023-08-28T10:50:03.872Z,1013.0
2023-08-28T10:51:03.937Z,1013.1
2023-08-28T10:52:03.927Z,1013.0
2023-08-28T10:53:04.297Z,1013.0
2023-08-28T10:54:06.090Z,1013.0
2023-08-28T10:55:04.235Z,1013.0
2023-08-28T10:56:03.902Z,1013.0
2023-08-28T10:57:04.001Z,1013.0
2023-08-28T10:58:03.847Z,1013.1
2023-08-28T10:59:04.032Z,1013.1
2023-08-28T11:00:03.893Z,1013.0
2023-08-28T11:01:03.963Z,1013.1
2023-08-28T11:02:03.889Z,1013.0
2023-08-28T11:03:04.148Z,1013.1
2023-08-28T11:04:03.876Z,1013.1
2023-08-28T11:05:03.911Z,1013.1
2023-08-28T11:06:03.894Z,1013.1
2023-08-28T11:07:03.880Z,1013.1
2023-08-28T11:08:03.829Z,1013.1
2023-08-28T11:09:03.924Z,1013.1
2023-08-28T11:10:04.086Z,1013.1
2023-08-28T11:11:03.901Z,1013.2
2023-08-28T11:12:03.878Z,1013.1
2023-08-28T11:13:04.027Z,1013.0
2023-08-28T11:14:03.863Z,1013.0
2023-08-28T11:15:05.968Z,1013.0
2023-08-28T11:16:03.971Z,1013.1
2023-08-28T11:17:03.852Z,1013.1
2023-08-28T11:18:03.874Z,1013.1
2023-08-28T11:19:03.824Z,1013.1
2023-08-28T11:20:03.852Z,1013.1
2023-08-28T11:21:04.046Z,1013.1
2023-08-28T11:22:03.867Z,1013.1
2023-08-28T11:23:04.138Z,1013.1
2023-08-28T11:24:03.825Z,1013.1
2023-08-28T11:25:03.878Z,1013.0
2023-08-28T11:26:03.868Z,1013.0
2023-08-28T11:27:03.848Z,1013.1
2023-08-28T11:28:03.903Z,1013.0
2023-08-28T11:29:03.823Z,1013.0
2023-08-28T11:30:03.843Z,1013.1
2023-08-28T11:31:03.838Z,1013.1
2023-08-28T11:32:03.817Z,1013.0
2023-08-28T11:33:04.209Z,1013.0
2023-08-28T11:34:03.814Z,1013.0
2023-08-28T11:35:03.888Z,1013.0
2023-08-28T11:36:06.962Z,1013.0
2023-08-28T11:37:03.804Z,1012.9
2023-08-28T11:38:03.896Z,1012.9
2023-08-28T11:39:03.847Z,1012.9
2023-08-28T11:40:03.886Z,1012.8
2023-08-28T11:41:03.807Z,1012.8
2023-08-28T11:42:03.810Z,1012.9
2023-08-28T11:43:04.119Z,1012.8
2023-08-28T11:44:03.821Z,1012.8
2023-08-28T11:45:03.861Z,1012.7
2023-08-28T11:46:03.887Z,1012.8
2023-08-28T11:47:03.803Z,1012.7
2023-08-28T11:48:03.866Z,1012.7
2023-08-28T11:49:03.888Z,1012.8
2023-08-28T11:50:03.866Z,1012.7
2023-08-28T11:51:03.828Z,1012.7
2023-08-28T11:52:04.624Z,1012.6
2023-08-28T11:53:04.120Z,1012.5
2023-08-28T11:54:04.079Z,1012.5
2023-08-28T11:55:03.817Z,1012.6
2023-08-28T11:56:03.864Z,1012.5
2023-08-28T11:57:05.878Z,1012.6
2023-08-28T11:58:03.910Z,1012.6
2023-08-28T11:59:03.850Z,1012.6
2023-08-28T12:00:03.812Z,1012.5
2023-08-28T12:01:03.877Z,1012.5
2023-08-28T12:02:03.848Z,1012.6
2023-08-28T12:03:04.215Z,1012.5
2023-08-28T12:04:03.922Z,1012.6
2023-08-28T12:05:04.097Z,1012.5
2023-08-28T12:06:04.255Z,1012.5
2023-08-28T12:07:03.814Z,1012.5
2023-08-28T12:08:03.828Z,1012.4
2023-08-28T12:09:03.825Z,1012.5
2023-08-28T12:10:04.609Z,1012.4
2023-08-28T12:11:03.785Z,1012.5
2023-08-28T12:12:03.932Z,1012.5
2023-08-28T12:13:04.130Z,1012.4
2023-08-28T12:14:03.817Z,1012.5
2023-08-28T12:15:03.827Z,1012.5
2023-08-28T12:16:04.070Z,1012.5
2023-08-28T12:17:03.809Z,1012.4
2023-08-28T12:18:06.014Z,1012.4
2023-08-28T12:19:03.953Z,1012.4
2023-08-28T12:20:03.771Z,1012.4
2023-08-28T12:21:03.756Z,1012.4
2023-08-28T12:22:03.793Z,1012.5
2023-08-28T12:23:03.999Z,1012.5
2023-08-28T12:24:03.851Z,1012.4
2023-08-28T12:25:03.761Z,1012.3
2023-08-28T12:26:03.810Z,1012.4
2023-08-28T12:27:03.831Z,1012.5
2023-08-28T12:28:03.779Z,1012.4
2023-08-28T12:29:03.748Z,1012.4
2023-08-28T12:30:05.122Z,1012.4
2023-08-28T12:31:03.882Z,1012.4